Time;durP1;ratioP1;P1;durP2;ratioP2;P2;SDS_P1;SDS_P2;PMS_P1;PMS_P2;Temp;Humidity;BMP_temperature;BMP_pressure;BME280_temperature;BME280_humidity;BME280_pressure;Samples;Min_cycle;Max_cycle;Signal;HPM_P1;HPM_P2
2024/03/24 00:00:28;;;;;;;13.25;7.15;;;;;;;11.64;44.27;99103.81;5091935;28;20020;-26
2024/03/24 00:02:53;;;;;;;14.07;7.72;;;;;;;11.55;44.79;99102.50;5092014;28;20107;-26
2024/03/24 00:05:19;;;;;;;14.93;7.97;;;;;;;11.45;44.48;99096.91;5092465;28;20032;-26
2024/03/24 00:07:44;;;;;;;14.93;7.63;;;;;;;11.39;44.84;99093.28;5091662;28;20483;-26
2024/03/24 00:10:09;;;;;;;14.80;7.68;;;;;;;11.32;44.32;99081.91;5091608;28;20404;-26
2024/03/24 00:12:35;;;;;;;18.13;8.35;;;;;;;11.39;44.04;99079.16;5091776;28;20085;-26
2024/03/24 00:15:00;;;;;;;15.43;9.02;;;;;;;11.27;44.58;99079.09;5092057;28;20024;-26
2024/03/24 00:17:25;;;;;;;15.82;8.70;;;;;;;10.89;45.30;99070.31;5091720;28;20008;-26
2024/03/24 00:19:51;;;;;;;18.90;9.93;;;;;;;11.09;44.83;99062.09;5091939;28;20392;-26
2024/03/24 00:22:16;;;;;;;16.65;10.10;;;;;;;11.02;45.42;99063.22;5091706;28;20198;-25
2024/03/24 00:24:41;;;;;;;18.88;10.68;;;;;;;10.83;46.29;99057.06;5091597;28;20019;-26
2024/03/24 00:27:07;;;;;;;17.90;10.50;;;;;;;11.01;45.78;99065.06;5091528;28;20035;-25
2024/03/24 00:29:32;;;;;;;20.30;11.02;;;;;;;11.15;46.12;99065.72;5091166;28;20045;-26
2024/03/24 00:31:57;;;;;;;20.98;11.93;;;;;;;11.20;45.24;99057.06;5091095;28;20111;-25
2024/03/24 00:34:23;;;;;;;22.55;11.63;;;;;;;11.26;45.11;99059.63;5091306;28;20031;-25
2024/03/24 00:36:48;;;;;;;22.23;11.80;;;;;;;11.21;46.07;99050.69;5090957;28;20035;-25
2024/03/24 00:39:13;;;;;;;21.80;12.35;;;;;;;11.26;45.55;99053.50;5091231;28;20032;-25
2024/03/24 00:41:39;;;;;;;22.88;12.35;;;;;;;11.29;45.01;99053.88;5091461;28;20024;-26
2024/03/24 00:44:05;;;;;;;22.90;12.63;;;;;;;11.22;45.63;99055.00;5091561;28;20024;-25
2024/03/24 00:46:31;;;;;;;23.42;13.07;;;;;;;11.16;45.53;99059.38;5091093;28;20031;-26
2024/03/24 00:48:57;;;;;;;28.20;12.88;;;;;;;10.95;45.73;99058.78;5091098;28;20554;-26
2024/03/24 00:51:22;;;;;;;23.45;12.60;;;;;;;10.93;46.45;99054.72;5091276;28;20111;-26
2024/03/24 00:53:47;;;;;;;25.50;12.13;;;;;;;10.89;46.75;99041.03;5091260;28;20031;-26
2024/03/24 00:56:13;;;;;;;22.75;12.70;;;;;;;10.74;47.10;99048.59;5091295;28;20143;-26
2024/03/24 00:58:38;;;;;;;21.55;12.40;;;;;;;10.71;47.58;99057.81;5091197;28;20107;-26
2024/03/24 01:01:05;;;;;;;21.35;12.75;;;;;;;10.81;47.45;99056.50;5091160;28;20101;-26
2024/03/24 01:03:31;;;;;;;25.73;13.02;;;;;;;10.82;47.15;99052.81;5091181;28;20024;-26
2024/03/24 01:05:56;;;;;;;22.05;12.32;;;;;;;10.83;47.52;99049.91;5090811;28;20370;-26
2024/03/24 01:08:21;;;;;;;22.08;11.98;;;;;;;10.86;46.87;99054.78;5091025;28;20034;-25
2024/03/24 01:10:47;;;;;;;26.05;13.20;;;;;;;10.74;47.46;99046.72;5089862;28;20030;-26
2024/03/24 01:13:12;;;;;;;20.77;11.45;;;;;;;10.84;46.89;99050.72;5091350;28;20054;-25
2024/03/24 01:15:45;;;;;;;19.55;12.23;;;;;;;10.82;47.24;99052.81;5090944;28;20024;-26
2024/03/24 01:18:11;;;;;;;20.42;11.52;;;;;;;10.64;47.04;99041.13;5091055;28;20052;-26
2024/03/24 01:20:36;;;;;;;19.63;10.95;;;;;;;10.54;48.12;99054.91;5090753;28;20132;-26
2024/03/24 01:23:02;;;;;;;20.95;10.80;;;;;;;10.57;47.63;99049.16;5089182;28;20016;-26
2024/03/24 01:25:27;;;;;;;17.40;10.30;;;;;;;10.56;46.96;99044.06;5091183;28;20172;-26
2024/03/24 01:27:52;;;;;;;17.98;10.30;;;;;;;10.48;46.70;99045.16;5090974;28;20414;-26
2024/03/24 01:30:17;;;;;;;18.70;10.88;;;;;;;10.56;46.99;99046.72;5090787;28;20035;-25
2024/03/24 01:32:43;;;;;;;18.88;10.43;;;;;;;10.49;46.95;99044.13;5090783;28;20034;-26
2024/03/24 01:35:09;;;;;;;16.45;9.88;;;;;;;10.49;47.90;99028.16;5090601;28;20019;-26
2024/03/24 01:37:36;;;;;;;19.63;10.60;;;;;;;10.55;47.54;99032.59;5090703;28;20065;-25
2024/03/24 01:40:02;;;;;;;23.17;10.60;;;;;;;10.50;47.31;99028.97;5090877;28;20098;-24
2024/03/24 01:42:28;;;;;;;18.75;10.52;;;;;;;10.35;48.12;99034.63;5091290;28;20063;-25
2024/03/24 01:44:53;;;;;;;21.23;12.07;;;;;;;10.31;48.01;99036.91;5094831;28;20057;-26
2024/03/24 01:47:19;;;;;;;21.42;11.48;;;;;;;10.40;48.56;99041.97;5094608;28;20445;-26
2024/03/24 01:49:45;;;;;;;19.13;11.18;;;;;;;10.48;48.04;99041.69;5094474;28;20020;-25
2024/03/24 01:52:13;;;;;;;19.10;10.77;;;;;;;10.40;48.10;99042.78;5094420;28;20036;-26
2024/03/24 01:54:38;;;;;;;19.77;10.63;;;;;;;10.18;48.54;99037.00;5094738;28;20436;-26
2024/03/24 01:57:04;;;;;;;17.85;10.35;;;;;;;10.21;48.18;99038.44;5094921;28;20039;-26
2024/03/24 01:59:29;;;;;;;17.23;10.00;;;;;;;10.13;48.20;99035.00;5094545;28;20110;-26
2024/03/24 02:01:55;;;;;;;18.33;10.02;;;;;;;10.03;48.27;99029.34;5094597;28;20024;-27
2024/03/24 02:04:20;;;;;;;20.00;9.52;;;;;;;10.06;48.26;99036.09;5094145;28;20028;-27
2024/03/24 02:06:46;;;;;;;17.75;10.43;;;;;;;10.08;48.76;99026.06;5094333;28;20020;-25
2024/03/24 02:09:11;;;;;;;17.15;10.60;;;;;;;10.08;48.58;99024.22;5093965;28;20020;-26
2024/03/24 02:11:36;;;;;;;23.60;11.50;;;;;;;10.15;48.93;99017.00;5094018;28;20158;-26
2024/03/24 02:14:05;;;;;;;21.35;11.40;;;;;;;10.27;48.28;99018.94;5094087;28;20098;-26
2024/03/24 02:16:30;;;;;;;18.90;11.15;;;;;;;10.29;48.18;99003.59;5094211;28;20140;-26
2024/03/24 02:18:56;;;;;;;18.88;11.50;;;;;;;10.27;48.18;99013.63;5094179;28;20020;-27
2024/03/24 02:21:21;;;;;;;18.38;10.98;;;;;;;10.14;47.92;99004.72;5094191;28;20106;-26
2024/03/24 02:23:50;;;;;;;19.48;11.60;;;;;;;10.22;47.63;99000.16;5094090;28;20034;-26
2024/03/24 02:26:16;;;;;;;23.85;12.30;;;;;;;10.18;47.61;98986.50;5093937;28;20031;-26
2024/03/24 02:28:42;;;;;;;21.80;12.07;;;;;;;10.03;47.45;98980.69;5093639;28;20482;-27
2024/03/24 02:31:07;;;;;;;19.85;11.15;;;;;;;9.94;48.37;98975.69;5093753;28;20126;-26
2024/03/24 02:33:33;;;;;;;20.83;11.65;;;;;;;9.91;48.71;98988.56;5092887;28;20024;-27
2024/03/24 02:35:58;;;;;;;19.08;10.95;;;;;;;9.86;48.96;98993.72;5088589;28;20089;-26
2024/03/24 02:38:23;;;;;;;20.23;11.45;;;;;;;9.95;48.96;98995.09;5085395;28;20052;-26
2024/03/24 02:40:49;;;;;;;23.33;11.10;;;;;;;9.99;49.14;98998.94;5084618;28;20035;-26
2024/03/24 02:43:15;;;;;;;23.45;10.43;;;;;;;10.03;48.47;98988.69;5093164;28;20030;-26
2024/03/24 02:45:41;;;;;;;21.08;10.73;;;;;;;10.01;49.31;98974.78;5093758;28;20032;-26
2024/03/24 02:48:06;;;;;;;19.10;10.38;;;;;;;9.93;49.35;98971.38;5093107;28;20445;-26
2024/03/24 02:50:31;;;;;;;20.10;10.55;;;;;;;9.83;49.09;98973.72;5093371;28;20035;-26
2024/03/24 02:52:57;;;;;;;19.83;10.02;;;;;;;9.96;49.22;98988.75;5093297;28;20120;-26
2024/03/24 02:55:25;;;;;;;18.60;10.95;;;;;;;9.87;49.46;98982.06;5091924;28;20035;-27
2024/03/24 02:57:53;;;;;;;21.73;10.63;;;;;;;9.67;49.82;98980.41;5091789;28;20077;-26
2024/03/24 03:00:18;;;;;;;19.92;11.25;;;;;;;9.50;50.52;98981.94;5093376;28;20028;-26
2024/03/24 03:02:44;;;;;;;19.58;11.32;;;;;;;9.50;50.32;98969.47;5093068;28;20043;-26
2024/03/24 03:05:10;;;;;;;18.63;10.73;;;;;;;9.42;50.94;98964.41;5093084;28;20073;-26
2024/03/24 03:07:35;;;;;;;21.38;10.90;;;;;;;9.55;50.71;98976.78;5092827;28;20137;-26
2024/03/24 03:10:03;;;;;;;22.38;11.50;;;;;;;9.41;50.92;98970.78;5092631;28;20063;-25
2024/03/24 03:12:28;;;;;;;22.27;10.85;;;;;;;9.55;51.05;98977.59;5092913;28;20032;-25
2024/03/24 03:14:54;;;;;;;19.48;10.85;;;;;;;9.38;51.71;98963.22;5092864;28;20172;-25
2024/03/24 03:17:19;;;;;;;20.40;11.38;;;;;;;9.45;51.24;98965.84;5092961;28;20110;-25
2024/03/24 03:19:44;;;;;;;21.08;11.57;;;;;;;9.45;51.54;98965.84;5092614;28;20063;-25
2024/03/24 03:22:10;;;;;;;21.33;11.40;;;;;;;9.55;50.62;98960.84;5092595;28;20024;-25
2024/03/24 03:24:35;;;;;;;20.92;11.52;;;;;;;9.46;50.88;98970.09;5092460;28;20039;-26
2024/03/24 03:27:00;;;;;;;24.98;11.40;;;;;;;9.44;50.29;98975.63;5092331;28;20035;-26
2024/03/24 03:29:26;;;;;;;20.08;10.70;;;;;;;9.52;50.93;98970.06;5092653;28;20103;-26
2024/03/24 03:31:51;;;;;;;23.10;11.73;;;;;;;9.37;51.30;98974.88;5092636;28;20099;-26
2024/03/24 03:34:17;;;;;;;24.10;13.32;;;;;;;8.95;52.03;98963.88;5092393;28;20174;-26
2024/03/24 03:36:42;;;;;;;25.05;13.20;;;;;;;8.98;52.60;98960.78;5092678;28;20035;-26
2024/03/24 03:39:08;;;;;;;29.98;15.20;;;;;;;8.83;53.26;98949.66;5092336;28;20052;-26
2024/03/24 03:41:34;;;;;;;31.80;18.05;;;;;;;8.99;52.60;98960.59;5092362;28;20163;-25
2024/03/24 03:43:59;;;;;;;31.63;15.98;;;;;;;9.05;52.73;98968.75;5092820;28;20620;-26
2024/03/24 03:46:24;;;;;;;26.85;15.25;;;;;;;8.99;53.20;98959.78;5091511;28;20433;-26
2024/03/24 03:48:50;;;;;;;30.45;16.10;;;;;;;9.02;53.04;98961.19;5091521;28;20024;-26
2024/03/24 03:51:19;;;;;;;27.45;15.55;;;;;;;9.08;52.63;98961.16;5091659;28;20027;-26
2024/03/24 03:53:47;;;;;;;32.50;16.08;;;;;;;9.06;53.24;98957.09;5091880;28;20431;-26
2024/03/24 03:56:13;;;;;;;36.65;17.52;;;;;;;8.99;53.02;98946.50;5091730;28;20028;-25
2024/03/24 03:58:40;;;;;;;34.63;18.58;;;;;;;9.04;52.89;98948.53;5091986;28;20020;-26
2024/03/24 04:01:06;;;;;;;34.78;18.92;;;;;;;9.14;52.40;98947.03;5091604;28;20028;-26
2024/03/24 04:03:32;;;;;;;46.75;25.83;;;;;;;9.34;51.75;98946.91;5091708;28;20043;-26
2024/03/24 04:05:59;;;;;;;69.43;37.03;;;;;;;9.40;51.80;98942.56;5091685;28;20023;-25
2024/03/24 04:08:24;;;;;;;41.83;23.35;;;;;;;9.34;52.18;98940.78;5091650;28;20140;-25
2024/03/24 04:10:49;;;;;;;45.33;24.65;;;;;;;9.44;52.00;98946.41;5091414;28;20417;-25
2024/03/24 04:13:15;;;;;;;51.80;28.17;;;;;;;9.34;52.00;98946.91;5091107;28;20099;-26
2024/03/24 04:15:40;;;;;;;57.38;28.95;;;;;;;9.26;52.25;98933.09;5091822;28;20116;-25
2024/03/24 04:18:06;;;;;;;47.25;23.70;;;;;;;9.13;52.57;98936.63;5091815;28;20124;-25
2024/03/24 04:20:31;;;;;;;39.17;21.10;;;;;;;9.23;53.07;98939.63;5091858;28;20039;-25
2024/03/24 04:22:58;;;;;;;36.83;18.80;;;;;;;9.34;52.24;98946.09;5091861;28;20039;-25
2024/03/24 04:25:24;;;;;;;31.45;16.85;;;;;;;9.36;52.38;98955.47;5091653;28;20084;-26
2024/03/24 04:27:49;;;;;;;34.50;17.77;;;;;;;9.46;52.56;98948.88;5091479;28;20056;-26
2024/03/24 04:30:15;;;;;;;29.48;15.88;;;;;;;9.49;51.85;98953.75;5091754;28;20028;-26
2024/03/24 04:32:41;;;;;;;25.58;14.48;;;;;;;9.39;52.74;98962.19;5091624;28;20557;-26
2024/03/24 04:35:10;;;;;;;29.90;15.60;;;;;;;9.43;52.89;98960.75;5090008;28;20063;-26
2024/03/24 04:37:36;;;;;;;31.77;15.93;;;;;;;9.41;53.01;98962.00;5091771;28;20071;-26
2024/03/24 04:40:05;;;;;;;24.92;15.00;;;;;;;9.56;53.00;98959.84;5091382;28;20443;-26
2024/03/24 04:42:34;;;;;;;27.27;13.82;;;;;;;9.69;53.20;98962.41;5090329;28;20039;-26
2024/03/24 04:45:03;;;;;;;25.77;12.85;;;;;;;9.82;52.66;98969.41;5071104;28;20469;-26
2024/03/24 04:47:29;;;;;;;23.27;12.60;;;;;;;9.89;52.49;98969.38;5071123;28;20107;-26
2024/03/24 04:49:54;;;;;;;25.10;11.65;;;;;;;10.04;52.92;98977.84;5071401;28;20199;-26
2024/03/24 04:52:19;;;;;;;27.70;13.60;;;;;;;10.17;51.47;98964.41;5082021;28;20425;-27
2024/03/24 04:54:45;;;;;;;21.85;12.20;;;;;;;10.41;50.61;98983.22;5091161;28;20111;-26
2024/03/24 04:57:10;;;;;;;20.45;12.05;;;;;;;10.68;49.77;98977.59;5091395;28;20452;-26
2024/03/24 04:59:36;;;;;;;24.48;11.90;;;;;;;10.91;48.58;98976.94;5091123;28;20028;-26
2024/03/24 05:02:01;;;;;;;26.40;12.65;;;;;;;11.11;48.01;98969.47;5091559;28;20024;-27
2024/03/24 05:04:26;;;;;;;21.73;12.38;;;;;;;11.44;47.83;98983.38;5091041;28;20077;-26
2024/03/24 05:06:52;;;;;;;22.48;12.05;;;;;;;11.82;47.01;98988.34;5090697;28;20028;-26
2024/03/24 05:09:17;;;;;;;20.42;11.98;;;;;;;12.05;45.82;98976.91;5090704;28;20028;-26
2024/03/24 05:11:42;;;;;;;21.63;11.18;;;;;;;12.17;47.26;98989.44;5090888;28;20085;-26
2024/03/24 05:14:08;;;;;;;18.52;11.55;;;;;;;12.26;46.60;98975.53;5091116;28;20043;-26
2024/03/24 05:16:36;;;;;;;22.10;11.25;;;;;;;12.44;48.02;98984.44;5091022;28;20028;-27
2024/03/24 05:19:03;;;;;;;18.02;10.70;;;;;;;12.90;44.58;98983.50;5094445;28;20024;-27
2024/03/24 05:21:29;;;;;;;16.23;9.45;;;;;;;13.17;44.08;98977.59;5095360;28;20063;-27
2024/03/24 05:23:55;;;;;;;14.35;8.80;;;;;;;13.28;43.49;98971.41;5095341;28;20035;-27
2024/03/24 05:26:20;;;;;;;19.17;9.60;;;;;;;13.24;42.84;98977.47;5094961;28;20491;-26
2024/03/24 05:28:45;;;;;;;18.83;11.88;;;;;;;13.69;42.02;98977.50;5094783;28;20060;-26
2024/03/24 05:31:11;;;;;;;22.48;11.52;;;;;;;13.67;41.10;98973.44;5094776;28;20476;-26
2024/03/24 05:33:36;;;;;;;22.85;12.60;;;;;;;13.66;41.04;98972.63;5094726;28;20417;-27
2024/03/24 05:36:03;;;;;;;11.63;7.40;;;;;;;13.79;39.70;98970.69;5094707;28;20070;-26
2024/03/24 05:38:32;;;;;;;13.13;7.28;;;;;;;13.81;39.30;98981.94;5094571;28;20068;-26
2024/03/24 05:41:03;;;;;;;11.77;7.37;;;;;;;12.40;41.88;98983.28;5094797;28;20024;-26
2024/03/24 05:43:29;;;;;;;13.00;7.35;;;;;;;10.79;45.55;98986.69;5094690;28;20030;-26
2024/03/24 05:45:55;;;;;;;13.07;7.53;;;;;;;10.33;48.24;98983.50;5094962;28;20024;-27
2024/03/24 05:48:21;;;;;;;11.77;7.13;;;;;;;11.17;47.22;98975.75;5094336;28;20050;-26
2024/03/24 05:51:07;;;;;;;14.25;7.07;;;;;;;10.64;47.16;98961.31;5094780;28;20035;-27
2024/03/24 05:53:33;;;;;;;13.32;6.32;;;;;;;10.16;47.53;98960.13;5093712;28;20469;-27
2024/03/24 05:55:59;;;;;;;13.13;6.88;;;;;;;9.80;48.94;98974.13;5094641;28;20472;-27
2024/03/24 05:58:25;;;;;;;10.38;6.40;;;;;;;9.97;49.30;98975.22;5094620;28;20491;-26
2024/03/24 06:00:51;;;;;;;10.85;6.72;;;;;;;10.41;47.89;98977.91;5094659;28;20027;-27
2024/03/24 06:03:16;;;;;;;10.77;6.82;;;;;;;10.54;47.14;98974.28;5094423;28;20678;-26
2024/03/24 06:05:42;;;;;;;11.18;6.85;;;;;;;10.40;47.15;98970.97;5093079;28;20064;-27
2024/03/24 06:08:11;;;;;;;11.80;6.65;;;;;;;10.36;49.15;98973.25;5094728;28;20020;-27
2024/03/24 06:10:37;;;;;;;14.57;7.28;;;;;;;10.78;46.78;98969.13;5094863;28;20456;-26
2024/03/24 06:13:03;;;;;;;12.20;6.93;;;;;;;10.73;47.08;98977.75;5094819;28;20047;-26
2024/03/24 06:15:28;;;;;;;10.18;6.47;;;;;;;11.03;45.84;98977.00;5094899;28;20442;-26
2024/03/24 06:17:54;;;;;;;11.13;6.20;;;;;;;11.28;46.33;98977.66;5094757;28;20018;-27
2024/03/24 06:20:19;;;;;;;11.15;6.55;;;;;;;11.55;45.72;98986.06;5094559;28;20043;-27
2024/03/24 06:22:45;;;;;;;14.02;6.65;;;;;;;11.58;44.99;98986.69;5094146;28;20081;-26
2024/03/24 06:25:10;;;;;;;12.65;6.93;;;;;;;12.25;43.84;98965.06;5094632;28;20050;-27
2024/03/24 06:27:35;;;;;;;10.43;6.35;;;;;;;12.36;43.09;98968.78;5094666;28;20024;-28
2024/03/24 06:30:02;;;;;;;12.15;6.30;;;;;;;12.70;41.96;98967.09;5093984;28;20031;-27
2024/03/24 06:32:27;;;;;;;14.68;5.95;;;;;;;12.71;42.19;98969.50;5094567;28;20028;-27
2024/03/24 06:34:52;;;;;;;9.15;5.60;;;;;;;13.04;40.74;98975.22;5094343;28;20384;-27
2024/03/24 06:37:18;;;;;;;10.48;5.80;;;;;;;12.79;41.31;98970.19;5093994;28;20096;-27
2024/03/24 06:39:43;;;;;;;9.18;6.20;;;;;;;12.72;41.62;98978.34;5094231;28;20024;-26
2024/03/24 06:42:08;;;;;;;10.38;6.00;;;;;;;13.60;40.41;98975.47;5093862;28;20059;-26
2024/03/24 06:44:40;;;;;;;15.77;7.45;;;;;;;14.28;39.11;98968.22;5093976;28;20043;-28
2024/03/24 06:47:06;;;;;;;17.95;10.60;;;;;;;14.07;39.81;98962.56;5093641;28;20115;-28
2024/03/24 06:49:32;;;;;;;20.45;12.65;;;;;;;13.96;39.26;98950.09;5093649;28;20074;-27
2024/03/24 06:51:57;;;;;;;11.05;6.82;;;;;;;14.08;38.62;98952.66;5093264;28;20059;-27
2024/03/24 06:54:23;;;;;;;14.48;8.00;;;;;;;14.10;39.50;98957.78;5093366;28;20024;-27
2024/03/24 06:56:48;;;;;;;13.05;8.80;;;;;;;14.26;39.24;98946.25;5092999;28;20394;-27
2024/03/24 06:59:14;;;;;;;13.82;9.02;;;;;;;14.50;38.91;98951.38;5092929;28;20036;-27
2024/03/24 07:01:39;;;;;;;15.80;7.60;;;;;;;14.72;39.87;98948.72;5092581;28;20028;-26
2024/03/24 07:04:05;;;;;;;12.00;6.47;;;;;;;15.13;38.52;98941.13;5079832;28;20448;-27
2024/03/24 07:06:32;;;;;;;10.43;6.28;;;;;;;14.99;38.12;98938.03;5092966;28;20073;-27
2024/03/24 07:08:58;;;;;;;10.90;6.68;;;;;;;15.33;37.51;98948.56;5080718;28;20046;-28
2024/03/24 07:11:23;;;;;;;15.45;6.32;;;;;;;15.32;37.13;98947.75;5092106;28;20326;-27
2024/03/24 07:13:49;;;;;;;10.38;6.65;;;;;;;15.48;36.75;98946.03;5092638;28;20529;-27
2024/03/24 07:16:14;;;;;;;10.38;5.95;;;;;;;15.63;37.24;98958.72;5092263;28;20408;-27
2024/03/24 07:18:39;;;;;;;11.85;7.03;;;;;;;15.68;36.73;98941.88;5092565;28;20024;-28
2024/03/24 07:21:08;;;;;;;9.63;6.00;;;;;;;15.84;36.84;98943.66;5082349;28;20024;-26
2024/03/24 07:23:33;;;;;;;9.98;6.05;;;;;;;16.10;35.66;98941.94;5090210;28;20153;-27
2024/03/24 07:25:59;;;;;;;12.50;6.70;;;;;;;16.19;35.75;98934.22;5084250;28;20017;-27
2024/03/24 07:28:25;;;;;;;12.15;6.32;;;;;;;16.84;34.75;98929.41;5084465;28;20487;-28
2024/03/24 07:30:50;;;;;;;12.75;6.20;;;;;;;17.16;33.86;98934.59;5078256;28;20024;-27
2024/03/24 07:33:16;;;;;;;9.88;6.22;;;;;;;16.98;34.76;98925.19;5090377;28;20032;-29
2024/03/24 07:35:41;;;;;;;11.52;6.00;;;;;;;16.90;34.95;98939.09;5091786;28;20108;-27
2024/03/24 07:38:08;;;;;;;8.93;6.00;;;;;;;16.90;34.89;98927.56;5091358;28;20466;-28
2024/03/24 07:40:33;;;;;;;8.10;5.95;;;;;;;17.12;34.28;98925.47;5089317;28;20020;-25
2024/03/24 07:42:58;;;;;;;8.85;5.93;;;;;;;17.77;33.28;98928.44;5091165;28;20019;-27
2024/03/24 07:45:24;;;;;;;9.95;6.05;;;;;;;17.96;32.81;98938.69;5091248;28;20243;-27
2024/03/24 07:47:51;;;;;;;10.05;6.35;;;;;;;18.08;32.53;98930.31;5091115;28;20404;-27
2024/03/24 07:50:17;;;;;;;9.95;6.60;;;;;;;18.38;32.46;98936.72;5091426;28;20472;-25
2024/03/24 07:52:42;;;;;;;13.02;6.50;;;;;;;18.64;32.32;98927.47;5091543;28;20116;-27
2024/03/24 07:55:08;;;;;;;9.50;6.18;;;;;;;18.86;31.40;98908.22;5090759;28;20095;-28
2024/03/24 07:57:34;;;;;;;11.07;6.00;;;;;;;18.86;31.46;98912.81;5091341;28;20016;-27
2024/03/24 07:59:59;;;;;;;9.93;6.35;;;;;;;18.59;31.79;98908.59;5091802;28;20024;-28
2024/03/24 08:02:25;;;;;;;9.05;5.85;;;;;;;18.74;32.37;98911.22;5091708;28;20023;-27
2024/03/24 08:04:50;;;;;;;10.50;6.15;;;;;;;19.08;31.21;98913.22;5091361;28;20026;-27
2024/03/24 08:07:15;;;;;;;10.68;5.90;;;;;;;18.99;31.65;98908.72;5091451;28;20721;-28
2024/03/24 08:09:41;;;;;;;8.90;5.82;;;;;;;19.02;31.41;98892.78;5091391;28;20023;-27
2024/03/24 08:12:07;;;;;;;11.70;6.15;;;;;;;18.84;32.20;98896.13;5087023;28;20012;-27
2024/03/24 08:14:32;;;;;;;11.98;6.28;;;;;;;18.95;31.78;98895.78;5071353;28;20081;-27
2024/03/24 08:16:58;;;;;;;12.63;6.40;;;;;;;18.84;31.23;98890.72;5088293;28;20016;-27
2024/03/24 08:19:24;;;;;;;9.32;5.78;;;;;;;18.69;31.38;98880.81;5091047;28;20020;-27
2024/03/24 08:21:54;;;;;;;12.23;6.03;;;;;;;18.91;32.31;98888.53;5090258;28;20491;-27
2024/03/24 08:24:19;;;;;;;12.48;6.35;;;;;;;18.90;32.11;98881.53;5090911;28;20529;-27
2024/03/24 08:26:45;;;;;;;9.05;6.15;;;;;;;19.11;31.69;98874.94;5091118;28;20039;-26
2024/03/24 08:29:10;;;;;;;11.80;6.30;;;;;;;19.14;32.00;98871.66;5090173;28;20441;-27
2024/03/24 08:31:36;;;;;;;7.97;6.15;;;;;;;19.39;31.46;98877.94;5090880;28;20274;-27
2024/03/24 08:34:01;;;;;;;9.02;6.55;;;;;;;19.47;31.73;98873.81;5090669;28;20020;-26
2024/03/24 08:36:27;;;;;;;9.27;6.45;;;;;;;19.51;31.37;98873.00;5090821;28;20103;-28
2024/03/24 08:38:52;;;;;;;9.88;7.00;;;;;;;20.62;41.67;98865.06;5090422;28;20067;-26
2024/03/24 08:41:18;;;;;;;9.48;6.47;;;;;;;20.09;30.63;98858.66;5090597;28;20016;-28
2024/03/24 08:43:43;;;;;;;9.85;5.90;;;;;;;19.43;31.61;98857.41;5090947;28;20028;-28
2024/03/24 08:46:13;;;;;;;8.50;6.07;;;;;;;19.47;32.11;98844.94;5074666;28;20111;-27
2024/03/24 08:48:39;;;;;;;10.75;6.22;;;;;;;19.82;31.26;98843.03;5078436;28;20020;-26
2024/03/24 08:51:04;;;;;;;8.63;5.60;;;;;;;20.29;31.27;98838.69;5090993;28;20026;-27
2024/03/24 08:53:29;;;;;;;9.98;6.07;;;;;;;19.52;31.96;98838.72;5090363;28;20031;-27
2024/03/24 08:55:55;;;;;;;12.32;6.40;;;;;;;19.93;36.65;98838.31;5086308;28;20120;-26
2024/03/24 08:58:20;;;;;;;11.30;5.63;;;;;;;20.33;31.86;98830.00;5070951;28;20103;-27
2024/03/24 09:00:52;;;;;;;11.18;5.90;;;;;;;20.62;30.12;98832.63;5072512;28;20103;-27
2024/03/24 09:03:17;;;;;;;10.00;5.72;;;;;;;20.72;30.32;98826.28;5090618;28;20016;-27
2024/03/24 09:05:43;;;;;;;10.00;5.65;;;;;;;20.18;31.13;98823.72;5087592;28;20377;-28
2024/03/24 09:08:08;;;;;;;8.35;6.05;;;;;;;20.13;31.37;98823.78;5080097;28;20107;-26
2024/03/24 09:10:33;;;;;;;10.55;6.03;;;;;;;19.72;32.09;98826.94;5090527;28;20448;-27
2024/03/24 09:12:59;;;;;;;10.90;6.30;;;;;;;19.63;32.17;98818.63;5090292;28;20498;-26
2024/03/24 09:15:25;;;;;;;10.88;5.95;;;;;;;19.58;33.08;98817.88;5089640;28;20468;-26
2024/03/24 09:17:50;;;;;;;10.68;6.38;;;;;;;19.79;32.84;98803.09;5084056;28;20017;-27
2024/03/24 09:20:15;;;;;;;11.90;7.43;;;;;;;20.39;32.21;98797.25;5070414;28;20094;-28
2024/03/24 09:22:41;;;;;;;9.52;6.55;;;;;;;20.05;32.29;98782.03;5090119;28;20047;-27
2024/03/24 09:25:07;;;;;;;9.52;6.00;;;;;;;19.69;33.92;98798.59;5090192;28;20090;-26
2024/03/24 09:27:33;;;;;;;9.00;6.25;;;;;;;19.72;33.61;98791.84;5090175;28;20114;-26
2024/03/24 09:29:58;;;;;;;9.25;6.78;;;;;;;19.33;34.40;98784.66;5090385;28;20434;-26
2024/03/24 09:32:24;;;;;;;11.00;7.25;;;;;;;18.63;35.94;98779.53;5087957;28;20024;-27
2024/03/24 09:34:51;;;;;;;11.48;7.00;;;;;;;18.58;36.17;98774.97;5088973;28;20028;-27
2024/03/24 09:37:17;;;;;;;12.95;7.00;;;;;;;19.10;36.13;98760.06;5088584;28;20078;-27
2024/03/24 09:39:42;;;;;;;12.60;7.07;;;;;;;18.92;35.19;98753.47;5088811;28;20051;-27
2024/03/24 09:42:11;;;;;;;10.38;6.70;;;;;;;18.80;35.08;98744.13;5088517;28;20392;-27
2024/03/24 09:44:40;;;;;;;10.60;6.38;;;;;;;19.07;35.46;98735.56;5089303;28;20016;-29
2024/03/24 09:47:05;;;;;;;11.60;6.70;;;;;;;18.99;35.54;98734.28;5088989;28;20070;-27
2024/03/24 09:49:32;;;;;;;10.82;7.00;;;;;;;18.73;35.72;98739.03;5088271;28;20051;-27
2024/03/24 09:52:00;;;;;;;16.52;7.10;;;;;;;18.68;36.77;98723.72;5087834;28;20103;-27
2024/03/24 09:54:26;;;;;;;17.98;7.70;;;;;;;18.94;36.74;98720.81;5088498;28;20024;-27
2024/03/24 09:56:51;;;;;;;14.13;7.57;;;;;;;19.23;36.10;98712.75;5087935;28;20410;-27
2024/03/24 09:59:17;;;;;;;14.68;7.28;;;;;;;19.21;35.67;98708.72;5088265;28;20138;-27
2024/03/24 10:01:47;;;;;;;15.35;7.47;;;;;;;19.41;35.96;98711.22;5089204;28;20059;-27
2024/03/24 10:04:14;;;;;;;13.02;7.03;;;;;;;18.94;36.13;98700.09;5075152;28;20122;-27
2024/03/24 10:06:39;;;;;;;10.63;7.22;;;;;;;18.90;36.66;98698.22;5092564;28;20507;-26
2024/03/24 10:09:05;;;;;;;10.60;7.10;;;;;;;18.58;37.35;98680.69;5092688;28;20028;-26
2024/03/24 10:11:34;;;;;;;13.25;7.60;;;;;;;18.81;37.52;98675.66;5093069;28;20110;-27
2024/03/24 10:14:01;;;;;;;13.50;7.35;;;;;;;19.20;37.87;98678.25;5092879;28;20024;-28
2024/03/24 10:16:27;;;;;;;9.73;6.40;;;;;;;19.74;36.32;98662.81;5092998;28;20047;-28
2024/03/24 10:18:52;;;;;;;8.43;6.28;;;;;;;19.90;35.87;98658.81;5089260;28;20468;-27
2024/03/24 10:21:19;;;;;;;9.32;5.88;;;;;;;19.64;35.10;98660.22;5083359;28;20024;-28
2024/03/24 10:23:45;;;;;;;10.10;5.97;;;;;;;19.52;35.49;98664.13;5092458;28;20484;-27
2024/03/24 10:26:23;;;;;;;10.93;6.10;;;;;;;20.41;34.55;98646.47;5091447;28;20156;-27
2024/03/24 10:28:50;;;;;;;11.35;6.15;;;;;;;20.83;34.03;98639.28;5086263;28;20056;-27
2024/03/24 10:31:15;;;;;;;8.38;6.28;;;;;;;20.79;32.83;98640.16;5086266;28;20024;-26
2024/03/24 10:33:41;;;;;;;10.23;6.05;;;;;;;20.49;33.49;98639.59;5091523;28;20035;-28
2024/03/24 10:36:08;;;;;;;9.93;6.45;;;;;;;20.63;33.64;98626.13;5083803;28;20031;-27
2024/03/24 10:38:41;;;;;;;11.13;6.00;;;;;;;20.73;34.45;98625.16;5087972;28;20136;-28
2024/03/24 10:41:08;;;;;;;11.93;6.15;;;;;;;21.40;32.64;98620.09;5088102;28;20330;-27
2024/03/24 10:43:34;;;;;;;8.40;5.72;;;;;;;21.71;32.45;98616.75;5081263;28;20035;-27
2024/03/24 10:46:00;;;;;;;9.35;5.75;;;;;;;20.91;33.62;98610.75;5092443;28;20376;-27
2024/03/24 10:48:33;;;;;;;9.65;5.25;;;;;;;21.17;32.55;98604.84;5092132;28;20031;-27
2024/03/24 10:51:07;;;;;;;7.75;5.43;;;;;;;21.19;31.67;98602.66;5093038;28;20453;-26
2024/03/24 10:53:33;;;;;;;8.27;5.57;;;;;;;21.10;31.98;98591.75;5092501;28;20035;-26
2024/03/24 10:56:00;;;;;;;6.97;5.00;;;;;;;20.80;31.74;98585.00;5092648;28;20024;-27
2024/03/24 10:58:26;;;;;;;8.45;5.10;;;;;;;20.86;31.64;98578.41;5092233;28;20024;-27
2024/03/24 11:00:52;;;;;;;8.38;4.75;;;;;;;20.97;31.31;98569.00;5092373;28;20665;-27
2024/03/24 11:03:19;;;;;;;7.30;4.60;;;;;;;21.57;31.44;98569.97;5092941;28;20047;-27
2024/03/24 11:05:46;;;;;;;6.60;4.70;;;;;;;21.35;31.36;98560.66;5092835;28;20020;-27
2024/03/24 11:08:13;;;;;;;10.60;4.78;;;;;;;21.35;31.26;98546.34;5092843;28;20177;-29
2024/03/24 11:10:50;;;;;;;7.13;4.50;;;;;;;21.90;30.87;98557.03;5092361;28;20464;-27
2024/03/24 11:13:18;;;;;;;8.40;4.80;;;;;;;21.82;30.33;98555.06;5092475;28;20411;-27
2024/03/24 11:15:48;;;;;;;6.53;4.33;;;;;;;21.88;30.02;98542.22;5091235;28;20030;-28
2024/03/24 11:18:20;;;;;;;5.63;4.15;;;;;;;21.89;30.32;98549.22;5092723;28;20383;-27